Elpida Gr — 9HA2241 — position and weather

sailwx.info

Track history (hours):
 
Tides and Currents Weather Stations Pressure Air Temp Water Temp Dewpoint Dewpoint Depression Visibility Wind Speed Wind Dir Waves Ship Positions

Elpida Gr

Last reported at 2017-Nov-17 07:30 UTC. Time now 2017-Dec-11 09:52 UTC.
Position N 30°22' E 032°21'.
Warning: this ship's position is 24 days out of date.

Length 190 m; draft 12 m.

Type: Cargo ship. MMSI: 248197000.

Date/timePositionNaut miles runAvg speedWind from/ knotsBaromVisibWave heightAir tempDewpointWater temp
2017-Nov-17 07:30N 30°22' E 032°21'0 0.0
2017-Nov-17 06:51N 30°22' E 032°21'0 0.1
2017-Nov-17 06:15N 30°22' E 032°21'0 0.2
2017-Nov-17 05:57N 30°22' E 032°22'1 2.0
2017-Nov-17 05:25N 30°23' E 032°22'5 9.3
2017-Nov-17 04:50N 30°28' E 032°21'3 9.6
2017-Nov-17 04:29N 30°31' E 032°20'52 7.6
2017-Nov-16 21:43N 31°23' E 032°20'1 3.2
2017-Nov-16 21:30N 31°23' E 032°19'1 0.5
2017-Nov-16 20:09N 31°23' E 032°19'0 0.0
2017-Nov-16 19:57N 31°23' E 032°19'0 0.0
2017-Nov-16 16:54N 31°23' E 032°19'0 0.0
2017-Nov-16 16:27N 31°23' E 032°19'0 0.0
2017-Nov-16 14:12N 31°23' E 032°19'0 0.0
2017-Nov-16 13:48N 31°23' E 032°19'0 0.0
2017-Nov-16 13:30N 31°23' E 032°19'0 0.0
2017-Nov-16 12:39N 31°23' E 032°19'0 0.0
2017-Nov-16 12:27N 31°23' E 032°19'0 0.0
2017-Nov-16 04:51N 31°23' E 032°19'0 0.0
2017-Nov-16 04:27N 31°23' E 032°19'0 0.1
2017-Nov-16 03:57N 31°23' E 032°19'0 0.2
2017-Nov-16 03:27N 31°23' E 032°19'48011.2
2017-Nov-14 08:37N 37°23' E 025°55'110.9
2017-Nov-14 08:30N 37°24' E 025°54'510.6
2017-Nov-14 08:00N 37°29' E 025°52'510.7
2017-Nov-14 07:30N 37°34' E 025°52'  
2017-Nov-10 13:56N 46°16' E 030°54'510.1
2017-Nov-10 13:29N 46°20' E 030°52'5 9.6
2017-Nov-10 13:00N 46°25' E 030°50'5 9.0
2017-Nov-10 12:30N 46°29' E 030°48'2 3.7
2017-Nov-10 12:00N 46°30' E 030°46'1 2.0
2017-Nov-10 11:30N 46°29' E 030°45'0 0.2
2017-Nov-10 11:00N 46°29' E 030°45'0 0.0
2017-Nov-10 10:24N 46°29' E 030°45'0 0.0
2017-Nov-10 10:00N 46°29' E 030°45'0 0.0
2017-Nov-10 09:30N 46°29' E 030°45'0 0.0
2017-Nov-10 08:57N 46°29' E 030°45'0 0.0
2017-Nov-10 08:30N 46°29' E 030°45'0 0.0
2017-Nov-10 08:00N 46°29' E 030°45'0 0.0
2017-Nov-10 07:27N 46°29' E 030°45'0 0.0
2017-Nov-10 07:00N 46°29' E 030°45'0 0.0
2017-Nov-10 06:30N 46°29' E 030°45'0 0.0
2017-Nov-10 05:54N 46°29' E 030°45'0 0.0
2017-Nov-10 05:30N 46°29' E 030°45'0 0.0
2017-Nov-10 04:42N 46°29' E 030°45'0 0.0
2017-Nov-10 04:27N 46°29' E 030°45'0 0.0
2017-Nov-10 03:48N 46°29' E 030°45'0 0.0
2017-Nov-10 03:30N 46°29' E 030°45'0 0.0
2017-Nov-10 02:54N 46°29' E 030°45'0 0.0
2017-Nov-10 02:30N 46°29' E 030°45'0 0.0
2017-Nov-10 02:00N 46°29' E 030°45'0 0.1
2017-Nov-10 01:30N 46°29' E 030°45'0 0.0
2017-Nov-10 00:57N 46°29' E 030°45'0 0.0
2017-Nov-10 00:30N 46°29' E 030°45'0 0.0
2017-Nov-10 00:00N 46°29' E 030°45'0 0.0
2017-Nov-09 23:30N 46°29' E 030°45'0 0.0
2017-Nov-09 22:42N 46°29' E 030°45'0 0.0
2017-Nov-09 22:27N 46°29' E 030°45'0 0.0
2017-Nov-09 21:57N 46°29' E 030°45'0 0.0
2017-Nov-09 21:30N 46°29' E 030°45'0 0.0
2017-Nov-09 20:54N 46°29' E 030°45'0 0.0
2017-Nov-09 20:30N 46°29' E 030°45'0 0.0
2017-Nov-09 19:57N 46°29' E 030°45'0 0.0
2017-Nov-09 19:24N 46°29' E 030°45'0 0.0
2017-Nov-09 18:57N 46°29' E 030°45'0 0.0
2017-Nov-09 18:21N 46°29' E 030°45'0 0.0
2017-Nov-09 17:51N 46°29' E 030°45'0 0.0
2017-Nov-09 17:27N 46°29' E 030°45'0 0.0
2017-Nov-09 17:00N 46°29' E 030°45'0 0.0
2017-Nov-09 16:30N 46°29' E 030°45'0 0.0
2017-Nov-09 16:00N 46°29' E 030°45'0 0.0
2017-Nov-09 15:27N 46°29' E 030°45'0 0.0
2017-Nov-09 14:45N 46°29' E 030°45'0 0.0
2017-Nov-09 14:27N 46°29' E 030°45'0 0.0
2017-Nov-09 13:57N 46°29' E 030°45'0 0.0
2017-Nov-09 13:30N 46°29' E 030°45'0 0.0
2017-Nov-09 12:57N 46°29' E 030°45'0 0.0
2017-Nov-09 12:27N 46°29' E 030°45'0 0.0
2017-Nov-09 11:57N 46°29' E 030°45'0 0.0
2017-Nov-09 11:30N 46°29' E 030°45'0 0.0
2017-Nov-09 10:57N 46°29' E 030°45'0 0.0
2017-Nov-09 10:06N 46°29' E 030°45'0 0.0
2017-Nov-09 10:00N 46°29' E 030°45'0 0.0
2017-Nov-09 09:30N 46°29' E 030°45'0 0.0
2017-Nov-09 08:57N 46°29' E 030°45'0 0.0
2017-Nov-09 08:27N 46°29' E 030°45'0 0.0
2017-Nov-09 08:00N 46°29' E 030°45'0 0.0
2017-Nov-09 07:30N 46°29' E 030°45'0 0.0
2017-Nov-09 06:54N 46°29' E 030°45'0 0.0
2017-Nov-09 06:24N 46°29' E 030°45'0 0.0
2017-Nov-09 05:57N 46°29' E 030°45'0 0.0
2017-Nov-09 05:27N 46°29' E 030°45'0 0.0
2017-Nov-09 04:42N 46°29' E 030°45'0 0.0
2017-Nov-09 04:12N 46°29' E 030°45'0 0.0
2017-Nov-09 04:00N 46°29' E 030°45'0 0.0
2017-Nov-09 03:27N 46°29' E 030°45'0 0.0
2017-Nov-09 03:00N 46°29' E 030°45'0 0.0
2017-Nov-09 02:30N 46°29' E 030°45'0 0.0
2017-Nov-09 01:48N 46°29' E 030°45'0 0.1
2017-Nov-09 01:27N 46°29' E 030°45'0 0.0
2017-Nov-09 00:57N 46°29' E 030°45'0 0.0
2017-Nov-09 00:30N 46°29' E 030°45'0 0.0
2017-Nov-08 23:57N 46°29' E 030°45'0 0.0
2017-Nov-08 23:30N 46°29' E 030°45'0 0.0
2017-Nov-08 23:00N 46°29' E 030°45'0 0.0
2017-Nov-08 22:30N 46°29' E 030°45'0 0.0
2017-Nov-08 22:00N 46°29' E 030°45'0 0.0
2017-Nov-08 21:30N 46°29' E 030°45'0 0.0
2017-Nov-08 21:00N 46°29' E 030°45'0 0.0
2017-Nov-08 20:24N 46°29' E 030°45'0 0.0
2017-Nov-08 20:00N 46°29' E 030°45'0 0.0
2017-Nov-08 19:18N 46°29' E 030°45'0 0.0
2017-Nov-08 18:48N 46°29' E 030°45'0 0.0
2017-Nov-08 18:12N 46°29' E 030°45'0 0.0
2017-Nov-08 18:00N 46°29' E 030°45'0 0.0
2017-Nov-08 17:30N 46°29' E 030°45'0 0.0
2017-Nov-08 16:57N 46°29' E 030°45'0 0.0
2017-Nov-08 16:30N 46°29' E 030°45'0 0.0
2017-Nov-08 15:57N 46°29' E 030°45'0 0.0
2017-Nov-08 15:27N 46°29' E 030°45'0 0.0
2017-Nov-08 14:57N 46°29' E 030°45'0 0.0
2017-Nov-08 14:30N 46°29' E 030°45'0 0.0
2017-Nov-08 13:54N 46°29' E 030°45'0 0.0
2017-Nov-08 13:21N 46°29' E 030°45'0 0.0
2017-Nov-08 13:00N 46°29' E 030°45'0 0.0
2017-Nov-08 12:24N 46°29' E 030°45'0 0.0
2017-Nov-08 12:00N 46°29' E 030°45'0 0.0
2017-Nov-08 11:27N 46°29' E 030°45'0 0.0
2017-Nov-08 10:57N 46°29' E 030°45'0 0.0
2017-Nov-08 10:27N 46°29' E 030°45'0 0.0
2017-Nov-08 10:00N 46°29' E 030°45'0 0.0
2017-Nov-08 09:27N 46°29' E 030°45'0 0.0
2017-Nov-08 09:00N 46°29' E 030°45'0 0.0
2017-Nov-08 08:24N 46°29' E 030°45'0 0.0
2017-Nov-08 08:00N 46°29' E 030°45'0 0.0
2017-Nov-08 07:24N 46°29' E 030°45'0 0.0
2017-Nov-08 06:51N 46°29' E 030°45'0 0.0
2017-Nov-08 06:18N 46°29' E 030°45'0 0.0
2017-Nov-08 06:00N 46°29' E 030°45'0 0.0
2017-Nov-08 05:30N 46°29' E 030°45'0 0.0
2017-Nov-08 04:57N 46°29' E 030°45'0 0.0
2017-Nov-08 04:30N 46°29' E 030°45'0 0.0
2017-Nov-08 03:54N 46°29' E 030°45'0 0.0
2017-Nov-08 03:27N 46°29' E 030°45'0 0.0
2017-Nov-08 02:57N 46°29' E 030°45'0 0.0
2017-Nov-08 02:21N 46°29' E 030°45'0 0.0
2017-Nov-08 01:45N 46°29' E 030°45'0 0.0
2017-Nov-08 01:30N 46°29' E 030°45'0 0.0
2017-Nov-08 00:57N 46°29' E 030°45'0 0.0
2017-Nov-08 00:30N 46°29' E 030°45'0 0.0
2017-Nov-07 23:54N 46°29' E 030°45'0 0.0
2017-Nov-07 23:27N 46°29' E 030°45'0 0.0
2017-Nov-07 23:00N 46°29' E 030°45'0 0.0
2017-Nov-07 22:25N 46°29' E 030°45'0 0.0
2017-Nov-07 21:58N 46°29' E 030°45'0 0.0
2017-Nov-07 21:28N 46°29' E 030°45'0 0.0
2017-Nov-07 20:55N 46°29' E 030°45'0 0.0
2017-Nov-07 20:25N 46°29' E 030°45'0 0.0
2017-Nov-07 19:58N 46°29' E 030°45'0 0.0
2017-Nov-07 19:25N 46°29' E 030°45'0 0.0
2017-Nov-07 18:40N 46°29' E 030°45'0 0.0
2017-Nov-07 18:22N 46°29' E 030°45'0 0.0
2017-Nov-07 17:31N 46°29' E 030°45'0 0.0
2017-Nov-07 17:22N 46°29' E 030°45'0 0.0
2017-Nov-07 16:55N 46°29' E 030°45'0 0.0
2017-Nov-07 16:16N 46°29' E 030°45'0 0.0
2017-Nov-07 15:40N 46°29' E 030°45'0 0.0
2017-Nov-07 15:19N 46°29' E 030°45'0 0.0
2017-Nov-07 14:58N 46°29' E 030°45'0 0.0
2017-Nov-07 14:25N 46°29' E 030°45'0 0.0
2017-Nov-07 13:58N 46°29' E 030°45'0 0.0
2017-Nov-07 13:22N 46°29' E 030°45'0 0.0
2017-Nov-07 12:58N 46°29' E 030°45'0 0.0
2017-Nov-07 12:07N 46°29' E 030°45'0 0.0
2017-Nov-07 11:55N 46°29' E 030°45'0 0.0
2017-Nov-07 11:22N 46°29' E 030°45'0 0.0
2017-Nov-07 10:58N 46°29' E 030°45'0 0.0
2017-Nov-07 10:28N 46°29' E 030°45'0 0.0
2017-Nov-07 09:52N 46°29' E 030°45'0 0.0
2017-Nov-07 09:13N 46°29' E 030°45'0 0.0
2017-Nov-07 08:55N 46°29' E 030°45'0 0.0
2017-Nov-07 08:22N 46°29' E 030°45'0 0.0
2017-Nov-07 07:52N 46°29' E 030°45'  
Track history (hours):
 
Tides and Currents Weather Stations Pressure Air Temp Water Temp Dewpoint Dewpoint Depression Visibility Wind Speed Wind Dir Waves Ship Positions

Elpida Gr

Last reported at 2017-Nov-17 07:30 UTC. Time now 2017-Dec-11 09:52 UTC.
Position N 30°22' E 032°21'.
Warning: this ship's position is 24 days out of date.

Length 190 m; draft 12 m.

Type: Cargo ship. MMSI: 248197000.

Date/timePositionNaut miles runAvg speedWind from/ knotsBaromVisibWave heightAir tempDewpointWater temp
2017-Nov-17 07:30N 30°22' E 032°21'0 0.0
2017-Nov-17 06:51N 30°22' E 032°21'0 0.1
2017-Nov-17 06:15N 30°22' E 032°21'0 0.2
2017-Nov-17 05:57N 30°22' E 032°22'1 2.0
2017-Nov-17 05:25N 30°23' E 032°22'5 9.3
2017-Nov-17 04:50N 30°28' E 032°21'3 9.6
2017-Nov-17 04:29N 30°31' E 032°20'52 7.6
2017-Nov-16 21:43N 31°23' E 032°20'1 3.2
2017-Nov-16 21:30N 31°23' E 032°19'1 0.5
2017-Nov-16 20:09N 31°23' E 032°19'0 0.0
2017-Nov-16 19:57N 31°23' E 032°19'0 0.0
2017-Nov-16 16:54N 31°23' E 032°19'0 0.0
2017-Nov-16 16:27N 31°23' E 032°19'0 0.0
2017-Nov-16 14:12N 31°23' E 032°19'0 0.0
2017-Nov-16 13:48N 31°23' E 032°19'0 0.0
2017-Nov-16 13:30N 31°23' E 032°19'0 0.0
2017-Nov-16 12:39N 31°23' E 032°19'0 0.0
2017-Nov-16 12:27N 31°23' E 032°19'0 0.0
2017-Nov-16 04:51N 31°23' E 032°19'0 0.0
2017-Nov-16 04:27N 31°23' E 032°19'0 0.1
2017-Nov-16 03:57N 31°23' E 032°19'0 0.2
2017-Nov-16 03:27N 31°23' E 032°19'48011.2
2017-Nov-14 08:37N 37°23' E 025°55'110.9
2017-Nov-14 08:30N 37°24' E 025°54'510.6
2017-Nov-14 08:00N 37°29' E 025°52'510.7
2017-Nov-14 07:30N 37°34' E 025°52'  
2017-Nov-10 13:56N 46°16' E 030°54'510.1
2017-Nov-10 13:29N 46°20' E 030°52'5 9.6
2017-Nov-10 13:00N 46°25' E 030°50'5 9.0
2017-Nov-10 12:30N 46°29' E 030°48'2 3.7
2017-Nov-10 12:00N 46°30' E 030°46'1 2.0
2017-Nov-10 11:30N 46°29' E 030°45'0 0.2
2017-Nov-10 11:00N 46°29' E 030°45'0 0.0
2017-Nov-10 10:24N 46°29' E 030°45'0 0.0
2017-Nov-10 10:00N 46°29' E 030°45'0 0.0
2017-Nov-10 09:30N 46°29' E 030°45'0 0.0
2017-Nov-10 08:57N 46°29' E 030°45'0 0.0
2017-Nov-10 08:30N 46°29' E 030°45'0 0.0
2017-Nov-10 08:00N 46°29' E 030°45'0 0.0
2017-Nov-10 07:27N 46°29' E 030°45'0 0.0
2017-Nov-10 07:00N 46°29' E 030°45'0 0.0
2017-Nov-10 06:30N 46°29' E 030°45'0 0.0
2017-Nov-10 05:54N 46°29' E 030°45'0 0.0
2017-Nov-10 05:30N 46°29' E 030°45'0 0.0
2017-Nov-10 04:42N 46°29' E 030°45'0 0.0
2017-Nov-10 04:27N 46°29' E 030°45'0 0.0
2017-Nov-10 03:48N 46°29' E 030°45'0 0.0
2017-Nov-10 03:30N 46°29' E 030°45'0 0.0
2017-Nov-10 02:54N 46°29' E 030°45'0 0.0
2017-Nov-10 02:30N 46°29' E 030°45'0 0.0
2017-Nov-10 02:00N 46°29' E 030°45'0 0.1
2017-Nov-10 01:30N 46°29' E 030°45'0 0.0
2017-Nov-10 00:57N 46°29' E 030°45'0 0.0
2017-Nov-10 00:30N 46°29' E 030°45'0 0.0
2017-Nov-10 00:00N 46°29' E 030°45'0 0.0
2017-Nov-09 23:30N 46°29' E 030°45'0 0.0
2017-Nov-09 22:42N 46°29' E 030°45'0 0.0
2017-Nov-09 22:27N 46°29' E 030°45'0 0.0
2017-Nov-09 21:57N 46°29' E 030°45'0 0.0
2017-Nov-09 21:30N 46°29' E 030°45'0 0.0
2017-Nov-09 20:54N 46°29' E 030°45'0 0.0
2017-Nov-09 20:30N 46°29' E 030°45'0 0.0
2017-Nov-09 19:57N 46°29' E 030°45'0 0.0
2017-Nov-09 19:24N 46°29' E 030°45'0 0.0
2017-Nov-09 18:57N 46°29' E 030°45'0 0.0
2017-Nov-09 18:21N 46°29' E 030°45'0 0.0
2017-Nov-09 17:51N 46°29' E 030°45'0 0.0
2017-Nov-09 17:27N 46°29' E 030°45'0 0.0
2017-Nov-09 17:00N 46°29' E 030°45'0 0.0
2017-Nov-09 16:30N 46°29' E 030°45'0 0.0
2017-Nov-09 16:00N 46°29' E 030°45'0 0.0
2017-Nov-09 15:27N 46°29' E 030°45'0 0.0
2017-Nov-09 14:45N 46°29' E 030°45'0 0.0
2017-Nov-09 14:27N 46°29' E 030°45'0 0.0
2017-Nov-09 13:57N 46°29' E 030°45'0 0.0
2017-Nov-09 13:30N 46°29' E 030°45'0 0.0
2017-Nov-09 12:57N 46°29' E 030°45'0 0.0
2017-Nov-09 12:27N 46°29' E 030°45'0 0.0
2017-Nov-09 11:57N 46°29' E 030°45'0 0.0
2017-Nov-09 11:30N 46°29' E 030°45'0 0.0
2017-Nov-09 10:57N 46°29' E 030°45'0 0.0
2017-Nov-09 10:06N 46°29' E 030°45'0 0.0
2017-Nov-09 10:00N 46°29' E 030°45'0 0.0
2017-Nov-09 09:30N 46°29' E 030°45'0 0.0
2017-Nov-09 08:57N 46°29' E 030°45'0 0.0
2017-Nov-09 08:27N 46°29' E 030°45'0 0.0
2017-Nov-09 08:00N 46°29' E 030°45'0 0.0
2017-Nov-09 07:30N 46°29' E 030°45'0 0.0
2017-Nov-09 06:54N 46°29' E 030°45'0 0.0
2017-Nov-09 06:24N 46°29' E 030°45'0 0.0
2017-Nov-09 05:57N 46°29' E 030°45'0 0.0
2017-Nov-09 05:27N 46°29' E 030°45'0 0.0
2017-Nov-09 04:42N 46°29' E 030°45'0 0.0
2017-Nov-09 04:12N 46°29' E 030°45'0 0.0
2017-Nov-09 04:00N 46°29' E 030°45'0 0.0
2017-Nov-09 03:27N 46°29' E 030°45'0 0.0
2017-Nov-09 03:00N 46°29' E 030°45'0 0.0
2017-Nov-09 02:30N 46°29' E 030°45'0 0.0
2017-Nov-09 01:48N 46°29' E 030°45'0 0.1
2017-Nov-09 01:27N 46°29' E 030°45'0 0.0
2017-Nov-09 00:57N 46°29' E 030°45'0 0.0
2017-Nov-09 00:30N 46°29' E 030°45'0 0.0
2017-Nov-08 23:57N 46°29' E 030°45'0 0.0
2017-Nov-08 23:30N 46°29' E 030°45'0 0.0
2017-Nov-08 23:00N 46°29' E 030°45'0 0.0
2017-Nov-08 22:30N 46°29' E 030°45'0 0.0
2017-Nov-08 22:00N 46°29' E 030°45'0 0.0
2017-Nov-08 21:30N 46°29' E 030°45'0 0.0
2017-Nov-08 21:00N 46°29' E 030°45'0 0.0
2017-Nov-08 20:24N 46°29' E 030°45'0 0.0
2017-Nov-08 20:00N 46°29' E 030°45'0 0.0
2017-Nov-08 19:18N 46°29' E 030°45'0 0.0
2017-Nov-08 18:48N 46°29' E 030°45'0 0.0
2017-Nov-08 18:12N 46°29' E 030°45'0 0.0
2017-Nov-08 18:00N 46°29' E 030°45'0 0.0
2017-Nov-08 17:30N 46°29' E 030°45'0 0.0
2017-Nov-08 16:57N 46°29' E 030°45'0 0.0
2017-Nov-08 16:30N 46°29' E 030°45'0 0.0
2017-Nov-08 15:57N 46°29' E 030°45'0 0.0
2017-Nov-08 15:27N 46°29' E 030°45'0 0.0
2017-Nov-08 14:57N 46°29' E 030°45'0 0.0
2017-Nov-08 14:30N 46°29' E 030°45'0 0.0
2017-Nov-08 13:54N 46°29' E 030°45'0 0.0
2017-Nov-08 13:21N 46°29' E 030°45'0 0.0
2017-Nov-08 13:00N 46°29' E 030°45'0 0.0
2017-Nov-08 12:24N 46°29' E 030°45'0 0.0
2017-Nov-08 12:00N 46°29' E 030°45'0 0.0
2017-Nov-08 11:27N 46°29' E 030°45'0 0.0
2017-Nov-08 10:57N 46°29' E 030°45'0 0.0
2017-Nov-08 10:27N 46°29' E 030°45'0 0.0
2017-Nov-08 10:00N 46°29' E 030°45'0 0.0
2017-Nov-08 09:27N 46°29' E 030°45'0 0.0
2017-Nov-08 09:00N 46°29' E 030°45'0 0.0
2017-Nov-08 08:24N 46°29' E 030°45'0 0.0
2017-Nov-08 08:00N 46°29' E 030°45'0 0.0
2017-Nov-08 07:24N 46°29' E 030°45'0 0.0
2017-Nov-08 06:51N 46°29' E 030°45'0 0.0
2017-Nov-08 06:18N 46°29' E 030°45'0 0.0
2017-Nov-08 06:00N 46°29' E 030°45'0 0.0
2017-Nov-08 05:30N 46°29' E 030°45'0 0.0
2017-Nov-08 04:57N 46°29' E 030°45'0 0.0
2017-Nov-08 04:30N 46°29' E 030°45'0 0.0
2017-Nov-08 03:54N 46°29' E 030°45'0 0.0
2017-Nov-08 03:27N 46°29' E 030°45'0 0.0
2017-Nov-08 02:57N 46°29' E 030°45'0 0.0
2017-Nov-08 02:21N 46°29' E 030°45'0 0.0
2017-Nov-08 01:45N 46°29' E 030°45'0 0.0
2017-Nov-08 01:30N 46°29' E 030°45'0 0.0
2017-Nov-08 00:57N 46°29' E 030°45'0 0.0
2017-Nov-08 00:30N 46°29' E 030°45'0 0.0
2017-Nov-07 23:54N 46°29' E 030°45'0 0.0
2017-Nov-07 23:27N 46°29' E 030°45'0 0.0
2017-Nov-07 23:00N 46°29' E 030°45'0 0.0
2017-Nov-07 22:25N 46°29' E 030°45'0 0.0
2017-Nov-07 21:58N 46°29' E 030°45'0 0.0
2017-Nov-07 21:28N 46°29' E 030°45'0 0.0
2017-Nov-07 20:55N 46°29' E 030°45'0 0.0
2017-Nov-07 20:25N 46°29' E 030°45'0 0.0
2017-Nov-07 19:58N 46°29' E 030°45'0 0.0
2017-Nov-07 19:25N 46°29' E 030°45'0 0.0
2017-Nov-07 18:40N 46°29' E 030°45'0 0.0
2017-Nov-07 18:22N 46°29' E 030°45'0 0.0
2017-Nov-07 17:31N 46°29' E 030°45'0 0.0
2017-Nov-07 17:22N 46°29' E 030°45'0 0.0
2017-Nov-07 16:55N 46°29' E 030°45'0 0.0
2017-Nov-07 16:16N 46°29' E 030°45'0 0.0
2017-Nov-07 15:40N 46°29' E 030°45'0 0.0
2017-Nov-07 15:19N 46°29' E 030°45'0 0.0
2017-Nov-07 14:58N 46°29' E 030°45'0 0.0
2017-Nov-07 14:25N 46°29' E 030°45'0 0.0
2017-Nov-07 13:58N 46°29' E 030°45'0 0.0
2017-Nov-07 13:22N 46°29' E 030°45'0 0.0
2017-Nov-07 12:58N 46°29' E 030°45'0 0.0
2017-Nov-07 12:07N 46°29' E 030°45'0 0.0
2017-Nov-07 11:55N 46°29' E 030°45'0 0.0
2017-Nov-07 11:22N 46°29' E 030°45'0 0.0
2017-Nov-07 10:58N 46°29' E 030°45'0 0.0
2017-Nov-07 10:28N 46°29' E 030°45'0 0.0
2017-Nov-07 09:52N 46°29' E 030°45'0 0.0
2017-Nov-07 09:13N 46°29' E 030°45'0 0.0
2017-Nov-07 08:55N 46°29' E 030°45'0 0.0
2017-Nov-07 08:22N 46°29' E 030°45'0 0.0
2017-Nov-07 07:52N 46°29' E 030°45'  

Dump ship's entire track history